Time;durP1;ratioP1;P1;durP2;ratioP2;P2;SDS_P1;SDS_P2;PMS_P1;PMS_P2;Temp;Humidity;BMP_temperature;BMP_pressure;BME280_temperature;BME280_humidity;BME280_pressure;Samples;Min_cycle;Max_cycle;Signal;HPM_P1;HPM_P2
2023/04/06 00:13:53;;;;;;;51.38;48.10;;;7.60;99.90;;;;;;5307357;27;20418;-68
2023/04/06 00:16:24;;;;;;;55.30;51.90;;;7.70;99.90;;;;;;5307364;27;20359;-68
2023/04/06 00:18:55;;;;;;;53.63;50.33;;;7.70;99.90;;;;;;5289003;28;20067;-68
2023/04/06 00:21:26;;;;;;;57.63;54.03;;;7.60;99.90;;;;;;5307425;28;20031;-68
2023/04/06 00:23:57;;;;;;;56.08;52.47;;;7.70;99.90;;;;;;5307273;27;20035;-68
2023/04/06 00:26:28;;;;;;;61.03;57.13;;;7.80;99.90;;;;;;5307175;27;20064;-68
2023/04/06 00:28:59;;;;;;;58.50;54.70;;;7.80;99.90;;;;;;5307257;28;20503;-68
2023/04/06 00:31:30;;;;;;;61.25;57.20;;;7.80;99.90;;;;;;5307229;27;20047;-68
2023/04/06 00:34:00;;;;;;;67.00;62.50;;;7.90;99.90;;;;;;5306950;27;20053;-68
2023/04/06 00:36:31;;;;;;;60.83;56.63;;;7.90;99.90;;;;;;5307363;27;20423;-68
2023/04/06 00:39:02;;;;;;;62.70;58.60;;;8.10;99.90;;;;;;5307257;28;20027;-68
2023/04/06 00:41:33;;;;;;;58.65;54.78;;;8.00;99.90;;;;;;5306854;28;20031;-68
2023/04/06 00:44:04;;;;;;;59.80;55.70;;;8.00;99.90;;;;;;5306938;27;20039;-68
2023/04/06 00:46:36;;;;;;;65.88;61.45;;;8.00;99.90;;;;;;5307002;28;20056;-68
2023/04/06 00:49:07;;;;;;;56.25;51.95;;;7.70;99.90;;;;;;5306771;27;20031;-68
2023/04/06 00:51:38;;;;;;;66.38;61.72;;;7.60;99.90;;;;;;5306801;28;20382;-68
2023/04/06 00:54:09;;;;;;;62.70;58.25;;;7.70;99.90;;;;;;5306610;28;20076;-68
2023/04/06 00:56:42;;;;;;;63.25;59.08;;;7.50;99.90;;;;;;5306552;27;20043;-68
2023/04/06 00:59:13;;;;;;;65.40;61.03;;;7.60;99.90;;;;;;5306467;28;20459;-68
2023/04/06 01:01:44;;;;;;;63.97;59.45;;;7.50;99.90;;;;;;5306449;28;20036;-68
2023/04/06 01:04:15;;;;;;;66.82;62.20;;;7.70;99.90;;;;;;5306098;27;20020;-68
2023/04/06 01:06:46;;;;;;;65.85;61.22;;;7.80;99.90;;;;;;5306549;27;20084;-68
2023/04/06 01:09:17;;;;;;;59.35;55.20;;;7.90;99.90;;;;;;5306395;27;20027;-64
2023/04/06 01:11:48;;;;;;;63.45;58.83;;;7.90;99.90;;;;;;5306027;27;20100;-68
2023/04/06 01:14:19;;;;;;;59.95;55.28;;;8.00;99.90;;;;;;5295097;28;20483;-68
2023/04/06 01:16:50;;;;;;;61.50;57.03;;;7.70;99.90;;;;;;5292049;28;20042;-68
2023/04/06 01:19:23;;;;;;;54.10;50.42;;;7.80;99.90;;;;;;5292043;28;20023;-68
2023/04/06 01:21:55;;;;;;;62.22;58.05;;;7.90;99.90;;;;;;5291867;28;20039;-68
2023/04/06 01:24:25;;;;;;;63.90;59.42;;;7.90;99.90;;;;;;5291725;28;20484;-68
2023/04/06 01:26:56;;;;;;;62.30;57.95;;;8.00;99.90;;;;;;5291859;28;20032;-64
2023/04/06 01:29:27;;;;;;;56.53;52.63;;;8.00;99.90;;;;;;5291917;28;20020;-68
2023/04/06 01:31:58;;;;;;;55.90;51.90;;;8.00;99.90;;;;;;5291745;28;20027;-68
2023/04/06 01:34:29;;;;;;;56.75;52.78;;;8.00;99.90;;;;;;5291575;28;20047;-68
2023/04/06 01:37:00;;;;;;;58.28;54.17;;;8.10;99.90;;;;;;5291722;28;20066;-65
2023/04/06 01:39:31;;;;;;;58.92;54.92;;;8.10;99.90;;;;;;5291842;28;20387;-64
2023/04/06 01:42:02;;;;;;;56.80;52.85;;;7.90;99.90;;;;;;5273292;28;20039;-68
2023/04/06 01:44:33;;;;;;;60.72;56.55;;;7.90;99.90;;;;;;5291408;28;20042;-68
2023/04/06 01:47:03;;;;;;;54.70;50.58;;;7.80;99.90;;;;;;5291579;28;20015;-68
2023/04/06 01:49:34;;;;;;;55.22;51.00;;;7.60;99.90;;;;;;5291591;28;20043;-68
2023/04/06 01:52:06;;;;;;;57.10;52.92;;;7.70;99.90;;;;;;5291551;28;20027;-68
2023/04/06 01:54:36;;;;;;;64.22;59.53;;;7.90;99.90;;;;;;5291480;28;20057;-68
2023/04/06 01:57:07;;;;;;;63.63;58.92;;;7.60;99.90;;;;;;5291418;28;20048;-68
2023/04/06 01:59:39;;;;;;;60.88;56.28;;;7.60;99.90;;;;;;5291323;28;20030;-68
2023/04/06 02:02:10;;;;;;;59.55;55.08;;;7.60;99.90;;;;;;5291051;28;20038;-68
2023/04/06 02:04:41;;;;;;;64.68;59.97;;;7.60;99.90;;;;;;5291142;28;20020;-68
2023/04/06 02:07:12;;;;;;;64.20;59.65;;;7.60;99.90;;;;;;5291172;28;20405;-67
2023/04/06 02:09:43;;;;;;;60.70;56.40;;;7.70;99.90;;;;;;5291050;28;20032;-68
2023/04/06 02:12:14;;;;;;;62.83;58.03;;;7.90;99.90;;;;;;5290689;28;20181;-68
2023/04/06 02:14:45;;;;;;;66.20;61.15;;;7.60;99.90;;;;;;5290880;28;20486;-68
2023/04/06 02:17:16;;;;;;;71.75;66.57;;;7.60;99.90;;;;;;5290936;28;20032;-68
2023/04/06 02:19:46;;;;;;;62.35;57.83;;;7.70;99.90;;;;;;5290841;28;20024;-68
2023/04/06 02:22:17;;;;;;;63.10;58.28;;;7.90;99.90;;;;;;5290702;28;20478;-68
2023/04/06 02:24:48;;;;;;;67.28;62.35;;;7.70;99.90;;;;;;5289844;28;20024;-68
2023/04/06 02:27:19;;;;;;;57.80;53.50;;;7.80;99.90;;;;;;5290706;28;20019;-68
2023/04/06 02:29:50;;;;;;;67.18;62.30;;;7.60;99.90;;;;;;5290609;28;20024;-68
2023/04/06 02:32:21;;;;;;;59.60;55.63;;;7.80;99.90;;;;;;5290512;28;20031;-68
2023/04/06 02:34:52;;;;;;;65.50;60.55;;;7.70;99.90;;;;;;5290492;28;20024;-68
2023/04/06 02:37:23;;;;;;;64.20;59.63;;;7.60;99.90;;;;;;5290561;28;20103;-68
2023/04/06 02:39:54;;;;;;;67.15;62.30;;;7.60;99.90;;;;;;5290411;28;20148;-68
2023/04/06 02:42:25;;;;;;;67.97;62.75;;;7.60;99.90;;;;;;5290140;28;20127;-68
2023/04/06 02:44:56;;;;;;;64.70;59.85;;;7.80;99.90;;;;;;5290258;28;20020;-68
2023/04/06 02:47:27;;;;;;;65.88;61.03;;;7.90;99.90;;;;;;5290136;28;20103;-68
2023/04/06 02:49:58;;;;;;;62.25;57.35;;;7.80;99.90;;;;;;5290252;28;20070;-68
2023/04/06 02:52:29;;;;;;;68.78;63.40;;;7.40;99.90;;;;;;5290056;28;20024;-68
2023/04/06 02:55:00;;;;;;;63.60;58.30;;;7.60;99.90;;;;;;5290198;28;20104;-68
2023/04/06 02:57:30;;;;;;;72.97;67.30;;;7.60;99.90;;;;;;5290210;28;20027;-68
2023/04/06 03:00:01;;;;;;;63.80;58.80;;;7.70;99.90;;;;;;5290016;28;20020;-68
2023/04/06 03:02:32;;;;;;;66.68;61.65;;;7.90;99.90;;;;;;5289983;28;20050;-68
2023/04/06 03:05:03;;;;;;;60.10;55.40;;;7.80;99.90;;;;;;5289743;28;20031;-68
2023/04/06 03:07:34;;;;;;;66.50;61.60;;;7.80;99.90;;;;;;5289952;28;20034;-68
2023/04/06 03:10:05;;;;;;;59.60;55.10;;;7.90;99.90;;;;;;5290078;28;20027;-68
2023/04/06 03:12:36;;;;;;;63.78;58.88;;;8.00;99.90;;;;;;5289324;28;20052;-68
2023/04/06 03:15:08;;;;;;;64.55;59.17;;;7.90;99.90;;;;;;5289828;28;20072;-68
2023/04/06 03:17:39;;;;;;;63.28;58.08;;;7.90;99.90;;;;;;5289747;28;20028;-68
2023/04/06 03:20:10;;;;;;;68.72;63.42;;;7.70;99.90;;;;;;5289723;28;20024;-68
2023/04/06 03:22:41;;;;;;;67.75;62.25;;;7.80;99.90;;;;;;5289491;28;20131;-68
2023/04/06 03:25:12;;;;;;;67.20;61.53;;;7.80;99.90;;;;;;5289247;28;20023;-68
2023/04/06 03:27:43;;;;;;;70.00;64.32;;;7.70;99.90;;;;;;5289545;28;20031;-68
2023/04/06 03:30:15;;;;;;;68.93;63.22;;;7.80;99.90;;;;;;5289584;28;20032;-68
2023/04/06 03:32:46;;;;;;;66.53;60.90;;;7.80;99.90;;;;;;5289403;28;20020;-68
2023/04/06 03:35:17;;;;;;;71.50;65.43;;;7.60;99.90;;;;;;5289394;28;20028;-68
2023/04/06 03:37:48;;;;;;;68.57;62.80;;;7.60;99.90;;;;;;5289161;28;20024;-68
2023/04/06 03:40:19;;;;;;;71.63;65.90;;;7.70;99.90;;;;;;5289348;28;20031;-68
2023/04/06 03:42:50;;;;;;;66.25;60.78;;;7.90;99.90;;;;;;5289061;28;20485;-68
2023/04/06 03:45:21;;;;;;;70.18;64.32;;;7.80;99.90;;;;;;5289344;28;20035;-67
2023/04/06 03:47:52;;;;;;;68.22;62.47;;;7.70;99.90;;;;;;5289110;28;20020;-68
2023/04/06 03:50:23;;;;;;;64.40;58.97;;;7.70;99.90;;;;;;5289092;28;20023;-68
2023/04/06 03:52:54;;;;;;;68.35;62.65;;;7.70;99.90;;;;;;5289015;28;20454;-67
2023/04/06 03:55:24;;;;;;;68.18;62.33;;;7.90;99.90;;;;;;5289059;28;20020;-68
2023/04/06 03:57:55;;;;;;;65.80;60.13;;;7.70;99.90;;;;;;5289175;28;20014;-68
2023/04/06 04:00:27;;;;;;;67.35;61.63;;;7.80;99.90;;;;;;5289166;28;20046;-68
2023/04/06 04:02:58;;;;;;;67.28;61.88;;;7.80;99.90;;;;;;5288993;28;20024;-68
2023/04/06 04:05:29;;;;;;;67.47;61.95;;;7.90;99.90;;;;;;5289025;28;20023;-68
2023/04/06 04:08:00;;;;;;;67.40;61.83;;;7.80;99.90;;;;;;5289084;28;20019;-67
2023/04/06 04:10:30;;;;;;;65.22;59.80;;;8.00;99.90;;;;;;5289045;28;20085;-68
2023/04/06 04:13:01;;;;;;;68.63;62.78;;;8.00;99.90;;;;;;5288605;28;20046;-65
2023/04/06 04:15:32;;;;;;;64.90;59.40;;;7.90;99.90;;;;;;5288974;28;20504;-67
2023/04/06 04:18:03;;;;;;;63.85;58.33;;;7.80;99.90;;;;;;5289003;28;20047;-68
2023/04/06 04:20:34;;;;;;;66.97;61.38;;;7.90;99.90;;;;;;5288882;28;20027;-68
2023/04/06 04:23:05;;;;;;;66.15;60.55;;;8.20;99.90;;;;;;5288861;28;20448;-68
2023/04/06 04:25:36;;;;;;;66.93;61.15;;;8.10;99.90;;;;;;5289046;28;20051;-68
2023/04/06 04:28:06;;;;;;;66.57;61.17;;;8.10;99.90;;;;;;5288905;28;20031;-68
2023/04/06 04:30:37;;;;;;;61.58;56.28;;;8.10;99.90;;;;;;5288965;28;20099;-68
2023/04/06 04:33:08;;;;;;;60.80;55.83;;;8.30;99.90;;;;;;5288758;28;20030;-68
2023/04/06 04:35:39;;;;;;;63.65;58.22;;;8.20;99.90;;;;;;5288720;28;20028;-68
2023/04/06 04:38:10;;;;;;;62.50;57.10;;;8.00;99.90;;;;;;5288911;28;20108;-68
2023/04/06 04:40:40;;;;;;;68.57;62.30;;;8.10;99.90;;;;;;5288847;28;20024;-65
2023/04/06 04:43:11;;;;;;;80.70;73.40;;;8.30;99.90;;;;;;5288541;28;20047;-64
2023/04/06 04:45:42;;;;;;;82.32;74.72;;;8.10;99.90;;;;;;5288807;28;20024;-68
2023/04/06 04:48:13;;;;;;;69.97;64.18;;;8.10;99.90;;;;;;5289129;28;20118;-68
2023/04/06 04:50:44;;;;;;;62.42;56.92;;;7.80;99.90;;;;;;5292764;28;20055;-68
2023/04/06 04:53:15;;;;;;;69.05;63.22;;;7.70;99.90;;;;;;5292662;28;20029;-68
2023/04/06 04:55:46;;;;;;;65.35;59.88;;;7.90;99.90;;;;;;5292538;28;20034;-68
2023/04/06 04:58:18;;;;;;;64.30;59.03;;;7.90;99.90;;;;;;5292567;28;20042;-68
2023/04/06 05:00:49;;;;;;;68.07;62.42;;;7.90;99.90;;;;;;5292433;28;20378;-68
2023/04/06 05:03:23;;;;;;;66.80;61.40;;;7.90;99.90;;;;;;5292073;28;20027;-68
2023/04/06 05:05:53;;;;;;;67.43;61.78;;;8.00;99.90;;;;;;5274020;28;20533;-68
2023/04/06 05:08:24;;;;;;;65.18;59.88;;;7.90;99.90;;;;;;5292258;28;20095;-68
2023/04/06 05:10:55;;;;;;;66.05;60.55;;;8.10;99.90;;;;;;5292141;28;20062;-68
2023/04/06 05:13:26;;;;;;;64.75;59.45;;;7.90;99.90;;;;;;5291911;28;20039;-68
2023/04/06 05:15:57;;;;;;;63.53;58.42;;;7.90;99.90;;;;;;5292145;28;20058;-68
2023/04/06 05:18:28;;;;;;;61.85;56.97;;;8.20;99.90;;;;;;5292128;28;20020;-68
2023/04/06 05:20:59;;;;;;;64.05;59.30;;;8.10;99.90;;;;;;5291890;28;20024;-68
2023/04/06 05:23:30;;;;;;;65.03;60.03;;;8.10;99.90;;;;;;5291728;28;20059;-68
2023/04/06 05:26:01;;;;;;;63.20;57.97;;;8.20;99.90;;;;;;5291993;28;20149;-68
2023/04/06 05:28:32;;;;;;;67.70;62.85;;;8.20;99.90;;;;;;5291741;28;20462;-68
2023/04/06 05:31:03;;;;;;;67.13;61.92;;;8.10;99.90;;;;;;5291891;28;20474;-68
2023/04/06 05:33:34;;;;;;;58.88;54.28;;;8.20;99.90;;;;;;5291642;28;20020;-68
2023/04/06 05:36:06;;;;;;;67.97;62.65;;;8.20;99.90;;;;;;5291524;28;20023;-68
2023/04/06 05:38:37;;;;;;;60.47;55.45;;;8.50;99.90;;;;;;5291771;28;20026;-65
2023/04/06 05:41:08;;;;;;;55.90;51.40;;;8.30;99.90;;;;;;5291705;28;20103;-68
2023/04/06 05:43:39;;;;;;;51.22;47.17;;;8.10;99.90;;;;;;5291554;28;20423;-68
2023/04/06 05:46:10;;;;;;;58.05;53.40;;;8.20;99.90;;;;;;5291550;28;20018;-68
2023/04/06 05:48:41;;;;;;;64.15;59.10;;;8.40;99.90;;;;;;5291600;28;20028;-68
2023/04/06 05:51:12;;;;;;;61.33;56.42;;;8.60;99.90;;;;;;5291263;28;20378;-68
2023/04/06 05:53:43;;;;;;;59.63;55.10;;;8.50;99.90;;;;;;5291471;28;20031;-68
2023/04/06 05:56:14;;;;;;;60.65;55.90;;;8.60;99.90;;;;;;5291352;28;20498;-68
2023/04/06 05:58:45;;;;;;;58.03;53.70;;;8.40;99.90;;;;;;5291411;28;20100;-68
2023/04/06 06:01:15;;;;;;;59.15;54.67;;;8.20;99.90;;;;;;5291174;28;20019;-68
2023/04/06 06:03:46;;;;;;;61.05;56.35;;;8.20;99.90;;;;;;5291013;28;20036;-68
2023/04/06 06:06:17;;;;;;;65.60;60.70;;;8.50;99.90;;;;;;5291278;28;20393;-68
2023/04/06 06:08:48;;;;;;;69.38;62.92;;;8.80;99.90;;;;;;5291060;28;20065;-68
2023/04/06 06:11:19;;;;;;;71.88;65.60;;;8.80;99.90;;;;;;5290920;28;20028;-68
2023/04/06 06:13:50;;;;;;;56.50;52.38;;;8.70;99.90;;;;;;5290774;28;20046;-67
2023/04/06 06:16:21;;;;;;;83.65;75.30;;;8.70;99.90;;;;;;5290880;28;20084;-68
2023/04/06 06:18:51;;;;;;;49.38;45.78;;;8.70;99.90;;;;;;5290863;28;20423;-67
2023/04/06 06:21:22;;;;;;;50.60;46.45;;;8.50;99.90;;;;;;5290661;28;20356;-67
2023/04/06 06:23:54;;;;;;;54.65;50.25;;;8.70;99.90;;;;;;5290602;28;20036;-68
2023/04/06 06:26:25;;;;;;;61.33;56.83;;;8.90;99.90;;;;;;5290591;28;20081;-67
2023/04/06 06:28:56;;;;;;;50.53;46.70;;;8.90;99.90;;;;;;5290581;28;20024;-67
2023/04/06 06:31:26;;;;;;;62.13;57.58;;;8.80;99.90;;;;;;5290504;28;20080;-66
2023/04/06 06:33:57;;;;;;;61.05;56.85;;;8.90;99.90;;;;;;5290468;28;20028;-67
2023/04/06 06:36:30;;;;;;;45.25;41.72;;;9.20;99.90;;;;;;5290329;28;20027;-68
2023/04/06 06:39:03;;;;;;;55.58;51.40;;;9.10;99.90;;;;;;5290509;28;20019;-67
2023/04/06 06:41:34;;;;;;;46.55;43.05;;;9.30;99.90;;;;;;5290277;28;20039;-67
2023/04/06 06:44:05;;;;;;;49.45;45.95;;;9.20;99.90;;;;;;5290088;28;20057;-68
2023/04/06 06:46:36;;;;;;;48.42;44.72;;;9.20;99.90;;;;;;5290278;28;20023;-67
2023/04/06 06:49:06;;;;;;;42.00;38.88;;;9.10;99.90;;;;;;5290233;28;20042;-68
2023/04/06 06:51:37;;;;;;;54.33;50.33;;;9.30;99.90;;;;;;5290388;28;20053;-68
2023/04/06 06:54:08;;;;;;;47.38;43.83;;;9.50;99.90;;;;;;5290426;28;20019;-68
2023/04/06 06:56:39;;;;;;;47.88;44.10;;;9.70;99.90;;;;;;5290284;28;20034;-68
2023/04/06 06:59:10;;;;;;;51.42;47.53;;;9.60;99.90;;;;;;5290374;28;20345;-68
2023/04/06 07:01:41;;;;;;;40.35;37.28;;;10.10;99.90;;;;;;5290080;28;20031;-65
2023/04/06 07:04:11;;;;;;;41.05;37.83;;;10.10;99.90;;;;;;5289868;28;20755;-68
2023/04/06 07:06:42;;;;;;;46.85;43.38;;;10.30;99.90;;;;;;5290074;28;20028;-68
2023/04/06 07:09:13;;;;;;;43.17;40.00;;;10.00;99.90;;;;;;5289979;28;20093;-68
2023/04/06 07:11:44;;;;;;;47.20;43.47;;;10.20;99.90;;;;;;5289060;28;20070;-68
2023/04/06 07:14:16;;;;;;;41.63;38.47;;;10.20;99.90;;;;;;5289772;28;20030;-68
2023/04/06 07:16:48;;;;;;;47.47;43.95;;;10.80;99.90;;;;;;5289759;28;20024;-68
2023/04/06 07:19:19;;;;;;;48.00;44.13;;;11.20;99.90;;;;;;5289594;28;20015;-68
2023/04/06 07:21:50;;;;;;;51.33;47.30;;;11.10;99.90;;;;;;5289610;28;20486;-67
2023/04/06 07:24:21;;;;;;;43.75;40.55;;;10.80;99.90;;;;;;5289625;28;20024;-64
2023/04/06 07:26:52;;;;;;;45.75;42.35;;;10.80;99.90;;;;;;5289543;28;20549;-68
2023/04/06 07:29:22;;;;;;;45.00;41.60;;;10.80;99.90;;;;;;5289641;28;20020;-68
2023/04/06 07:31:54;;;;;;;46.97;43.53;;;10.70;99.90;;;;;;5289325;28;20040;-67
2023/04/06 07:34:25;;;;;;;43.33;40.28;;;11.00;99.90;;;;;;5289454;28;20022;-68
2023/04/06 07:36:56;;;;;;;44.63;41.58;;;11.00;99.90;;;;;;5289502;28;20414;-68
2023/04/06 07:39:28;;;;;;;44.40;41.40;;;11.20;99.90;;;;;;5289453;28;20020;-68
2023/04/06 07:41:59;;;;;;;52.13;48.72;;;11.50;99.90;;;;;;5289102;28;20090;-68
2023/04/06 07:44:30;;;;;;;43.75;40.75;;;10.80;99.90;;;;;;5289311;28;20352;-68
2023/04/06 07:47:01;;;;;;;43.70;40.70;;;11.00;99.90;;;;;;5289200;28;20478;-68
2023/04/06 07:49:32;;;;;;;42.63;39.53;;;11.30;99.90;;;;;;5289160;28;20098;-67
2023/04/06 07:52:03;;;;;;;41.30;38.60;;;11.50;99.90;;;;;;5289090;28;20031;-68
2023/04/06 07:54:34;;;;;;;41.65;39.08;;;11.10;99.90;;;;;;5289065;28;20386;-68
2023/04/06 07:57:05;;;;;;;49.30;46.00;;;11.30;99.90;;;;;;5289011;28;20023;-68
2023/04/06 07:59:36;;;;;;;48.10;45.05;;;11.50;99.90;;;;;;5288945;28;20453;-67
2023/04/06 08:02:07;;;;;;;44.28;41.47;;;11.50;99.90;;;;;;5288733;28;20047;-67
2023/04/06 08:04:38;;;;;;;46.10;42.92;;;11.50;99.90;;;;;;5288883;28;20521;-68
2023/04/06 08:07:09;;;;;;;41.83;39.17;;;11.20;99.90;;;;;;5288993;28;20510;-68
2023/04/06 08:09:40;;;;;;;46.50;43.60;;;11.30;99.90;;;;;;5289026;28;20098;-68
2023/04/06 08:12:10;;;;;;;50.42;47.33;;;11.50;99.90;;;;;;5288748;28;20071;-68
2023/04/06 08:14:41;;;;;;;44.13;41.30;;;11.30;99.90;;;;;;5288838;28;20024;-64
2023/04/06 08:17:12;;;;;;;43.03;40.20;;;11.30;99.90;;;;;;5288890;28;20035;-67
2023/04/06 08:19:44;;;;;;;39.92;37.50;;;11.20;99.90;;;;;;5289178;28;20069;-67
2023/04/06 08:22:15;;;;;;;45.20;42.40;;;11.80;99.90;;;;;;5288923;28;20438;-68
2023/04/06 08:24:45;;;;;;;40.38;38.05;;;11.90;99.90;;;;;;5292130;28;20061;-68
2023/04/06 08:27:16;;;;;;;52.90;49.78;;;12.10;99.90;;;;;;5293140;28;20027;-68
2023/04/06 08:29:49;;;;;;;52.85;49.78;;;11.70;99.90;;;;;;5293256;28;20046;-68
2023/04/06 08:32:20;;;;;;;52.13;49.03;;;12.00;99.90;;;;;;5292931;28;20478;-68
2023/04/06 08:34:54;;;;;;;50.40;47.40;;;11.90;99.90;;;;;;5293137;28;20064;-67
2023/04/06 08:37:25;;;;;;;104.15;98.13;;;11.60;99.90;;;;;;5292921;28;20020;-68
2023/04/06 08:39:57;;;;;;;46.25;43.55;;;11.80;99.90;;;;;;5292978;28;20035;-67
2023/04/06 08:42:32;;;;;;;49.17;46.28;;;11.70;99.90;;;;;;5292635;28;20066;-68
2023/04/06 08:45:03;;;;;;;58.42;55.05;;;11.80;99.90;;;;;;5292724;28;20062;-68
2023/04/06 08:47:35;;;;;;;52.90;49.72;;;12.10;99.90;;;;;;5292736;28;20016;-68
2023/04/06 08:50:08;;;;;;;70.55;66.50;;;12.80;99.90;;;;;;5292783;28;20019;-68
2023/04/06 08:52:40;;;;;;;64.40;60.72;;;11.90;99.90;;;;;;5292713;28;20020;-66
2023/04/06 08:55:11;;;;;;;58.65;55.17;;;12.30;99.90;;;;;;5292414;28;20081;-68
2023/04/06 08:57:43;;;;;;;58.60;55.15;;;13.20;99.90;;;;;;5292423;28;20110;-68
2023/04/06 09:00:15;;;;;;;69.50;65.55;;;13.40;99.90;;;;;;5292313;28;20023;-65
2023/04/06 09:02:49;;;;;;;52.47;49.53;;;12.90;99.90;;;;;;5292060;28;20089;-68
2023/04/06 09:05:20;;;;;;;46.75;43.90;;;13.10;99.90;;;;;;5292326;28;20027;-65
2023/04/06 09:07:51;;;;;;;46.55;43.88;;;13.60;99.90;;;;;;5292406;28;20027;-68
2023/04/06 09:10:24;;;;;;;44.15;41.55;;;13.60;99.90;;;;;;5292137;28;20375;-68
2023/04/06 09:13:06;;;;;;;44.03;41.53;;;13.30;99.90;;;;;;5291985;28;20062;-68
2023/04/06 09:15:37;;;;;;;46.03;43.33;;;13.10;99.90;;;;;;5292136;28;20125;-68
2023/04/06 09:18:08;;;;;;;39.03;36.83;;;13.60;99.90;;;;;;5292093;28;20442;-68
2023/04/06 09:20:39;;;;;;;38.60;36.42;;;13.90;99.90;;;;;;5292126;28;20027;-68
2023/04/06 09:23:18;;;;;;;38.05;35.75;;;14.20;99.90;;;;;;5292007;28;20042;-68
2023/04/06 09:25:49;;;;;;;35.20;33.20;;;14.30;99.90;;;;;;5291978;28;20027;-68
2023/04/06 09:28:20;;;;;;;33.28;31.17;;;14.40;99.90;;;;;;5291921;28;20455;-67
2023/04/06 09:30:51;;;;;;;38.78;36.63;;;13.90;99.90;;;;;;5291982;28;20024;-68
2023/04/06 09:33:23;;;;;;;36.20;34.20;;;14.10;99.90;;;;;;5291918;28;20030;-66
2023/04/06 09:35:54;;;;;;;39.97;37.67;;;14.50;99.90;;;;;;5291545;28;20489;-68
2023/04/06 09:38:25;;;;;;;42.53;40.13;;;14.30;99.90;;;;;;5291734;28;20024;-67
2023/04/06 09:40:56;;;;;;;39.25;36.88;;;14.10;99.90;;;;;;5291584;28;20367;-68
2023/04/06 09:43:27;;;;;;;36.67;34.58;;;14.80;99.90;;;;;;5291389;28;20059;-68
2023/04/06 09:46:02;;;;;;;38.75;36.60;;;14.50;99.90;;;;;;5291551;28;20126;-68
2023/04/06 09:48:35;;;;;;;35.55;33.53;;;14.50;99.90;;;;;;5291622;28;20067;-69
2023/04/06 09:51:06;;;;;;;39.33;36.90;;;15.50;99.90;;;;;;5273278;28;20073;-67
2023/04/06 09:53:41;;;;;;;36.15;34.03;;;14.70;99.90;;;;;;5291554;28;20089;-68
2023/04/06 09:56:18;;;;;;;36.15;34.08;;;14.80;99.90;;;;;;5291390;28;20027;-68
2023/04/06 09:58:51;;;;;;;34.08;32.10;;;15.20;99.90;;;;;;5291430;28;20027;-68
2023/04/06 10:01:26;;;;;;;37.15;35.05;;;15.10;99.90;;;;;;5291112;28;20471;-68
2023/04/06 10:04:20;;;;;;;39.83;37.40;;;14.90;99.90;;;;;;5290924;28;20024;-68
2023/04/06 10:06:52;;;;;;;40.13;37.78;;;15.00;99.90;;;;;;5290957;28;20056;-68
2023/04/06 10:09:27;;;;;;;34.70;32.70;;;14.70;99.90;;;;;;5291042;28;20031;-68
2023/04/06 10:11:58;;;;;;;37.83;35.63;;;15.40;99.90;;;;;;5290805;28;20601;-68
2023/04/06 10:14:32;;;;;;;36.78;34.63;;;15.00;99.90;;;;;;5290929;28;20106;-69
2023/04/06 10:17:06;;;;;;;33.67;31.75;;;15.50;99.90;;;;;;5290997;28;20030;-68
2023/04/06 10:20:13;;;;;;;35.15;33.00;;;15.70;99.90;;;;;;5290874;28;20027;-68
2023/04/06 10:22:56;;;;;;;35.45;33.28;;;15.90;99.90;;;;;;5285635;28;20039;-68
2023/04/06 10:25:31;;;;;;;36.05;33.85;;;15.60;99.90;;;;;;5290825;28;20055;-68
2023/04/06 10:28:06;;;;;;;38.45;36.17;;;15.00;99.90;;;;;;5290666;28;20027;-68
2023/04/06 10:30:43;;;;;;;38.20;35.92;;;14.60;99.90;;;;;;5290698;28;20139;-68
2023/04/06 10:33:20;;;;;;;42.75;40.35;;;14.80;99.90;;;;;;5731423;22;20056;-71
2023/04/06 10:35:51;;;;;;;41.90;39.17;;;14.70;99.90;;;;;;5248509;28;20380;-68
2023/04/06 10:38:38;;;;;;;41.22;38.83;;;15.00;99.90;;;;;;5248378;28;20027;-65
2023/04/06 10:41:11;;;;;;;56.50;51.38;;;14.40;99.90;;;;;;5248469;28;20005;-68
2023/04/06 10:43:42;;;;;;;42.08;39.60;;;14.60;99.90;;;;;;5248174;28;20041;-68
2023/04/06 10:46:13;;;;;;;46.47;43.88;;;14.70;99.90;;;;;;5247725;28;20036;-69
2023/04/06 10:48:49;;;;;;;46.40;43.58;;;14.60;99.90;;;;;;5248622;28;20032;-68
2023/04/06 10:51:27;;;;;;;46.33;43.63;;;14.50;99.90;;;;;;5248364;28;20025;-68
2023/04/06 10:53:59;;;;;;;48.65;45.95;;;14.50;99.90;;;;;;5248248;28;20028;-68
2023/04/06 10:56:31;;;;;;;46.35;43.55;;;14.50;99.90;;;;;;5248347;28;20099;-69
2023/04/06 10:59:02;;;;;;;56.38;51.88;;;14.80;99.90;;;;;;5248120;28;20036;-68
2023/04/06 11:01:34;;;;;;;55.92;51.75;;;14.40;99.90;;;;;;5248007;28;20028;-69
2023/04/06 11:04:04;;;;;;;52.90;49.25;;;14.60;99.90;;;;;;5247747;28;20082;-68
2023/04/06 11:06:35;;;;;;;48.92;45.35;;;14.40;99.90;;;;;;5247916;28;20024;-68
2023/04/06 11:09:06;;;;;;;50.78;47.15;;;14.20;99.90;;;;;;5247876;28;20031;-69
2023/04/06 11:11:39;;;;;;;53.78;49.92;;;14.00;99.90;;;;;;5247870;28;20042;-69
2023/04/06 11:14:10;;;;;;;55.95;51.75;;;13.90;99.90;;;;;;5247808;28;20028;-69
2023/04/06 11:16:41;;;;;;;52.15;48.63;;;13.80;99.90;;;;;;5247701;28;20454;-69
2023/04/06 11:19:12;;;;;;;54.35;50.33;;;13.70;99.90;;;;;;5247695;28;20034;-68
2023/04/06 11:21:48;;;;;;;59.10;54.63;;;13.60;99.90;;;;;;5247549;28;20029;-69
2023/04/06 11:24:23;;;;;;;56.63;52.72;;;13.70;99.90;;;;;;5246462;28;20038;-69
2023/04/06 11:26:56;;;;;;;59.15;55.15;;;13.60;99.90;;;;;;5247581;28;20021;-68
2023/04/06 11:29:31;;;;;;;60.47;56.33;;;13.50;99.90;;;;;;5247572;28;20457;-69
2023/04/06 11:32:07;;;;;;;62.22;57.80;;;13.40;99.90;;;;;;5247368;28;20406;-68
2023/04/06 11:34:40;;;;;;;60.38;56.08;;;13.60;99.90;;;;;;5247282;28;20044;-69
2023/04/06 11:37:12;;;;;;;65.97;61.28;;;13.20;99.90;;;;;;5247371;28;20031;-69
2023/04/06 11:39:51;;;;;;;66.72;61.88;;;13.40;99.90;;;;;;5247449;28;20021;-69
2023/04/06 11:42:27;;;;;;;68.55;63.88;;;13.40;99.90;;;;;;5247345;28;20127;-69
2023/04/06 11:44:59;;;;;;;66.20;61.60;;;13.00;99.90;;;;;;5247516;28;20028;-69
2023/04/06 11:47:33;;;;;;;71.07;66.05;;;12.90;99.90;;;;;;5247341;28;20035;-69
2023/04/06 11:50:15;;;;;;;70.82;66.03;;;12.60;99.90;;;;;;5247227;28;20055;-69
2023/04/06 11:52:59;;;;;;;75.63;70.32;;;12.80;99.90;;;;;;5247476;28;20024;-69
2023/04/06 11:55:37;;;;;;;78.60;73.15;;;12.70;99.90;;;;;;5247301;28;20024;-68
2023/04/06 11:58:08;;;;;;;80.63;75.22;;;12.90;99.90;;;;;;5247132;28;20032;-69
2023/04/06 12:00:44;;;;;;;75.35;70.45;;;12.90;99.90;;;;;;5247276;28;20099;-69
2023/04/06 12:03:15;;;;;;;77.00;71.28;;;13.10;99.90;;;;;;5247231;28;20044;-68
2023/04/06 12:05:46;;;;;;;71.63;66.70;;;12.90;99.90;;;;;;5247241;28;20051;-68
2023/04/06 12:08:17;;;;;;;72.43;67.20;;;13.20;99.90;;;;;;5247408;28;20028;-68
2023/04/06 12:10:48;;;;;;;78.60;73.35;;;12.90;99.90;;;;;;5247255;28;20025;-69
2023/04/06 12:13:18;;;;;;;76.72;71.38;;;13.00;99.90;;;;;;5247127;28;20059;-68
2023/04/06 12:15:49;;;;;;;69.10;64.38;;;13.20;99.90;;;;;;5247236;28;20115;-69
2023/04/06 12:18:20;;;;;;;72.70;67.40;;;13.00;99.90;;;;;;5247128;28;20021;-69
2023/04/06 12:20:52;;;;;;;77.78;72.32;;;12.60;99.90;;;;;;5247079;28;20095;-68
2023/04/06 12:23:23;;;;;;;77.90;72.57;;;12.70;99.90;;;;;;5246908;28;20662;-69
2023/04/06 12:25:54;;;;;;;81.95;76.53;;;12.50;99.90;;;;;;5247065;28;20009;-68
2023/04/06 12:28:26;;;;;;;76.82;71.57;;;12.70;99.90;;;;;;5246936;28;20039;-69
2023/04/06 12:30:57;;;;;;;81.60;76.15;;;12.40;99.90;;;;;;5246950;28;20480;-68
2023/04/06 12:33:28;;;;;;;82.03;76.55;;;12.90;99.90;;;;;;5246553;28;20055;-68
2023/04/06 12:35:59;;;;;;;80.43;75.05;;;12.80;99.90;;;;;;5246805;28;20037;-69
2023/04/06 12:38:30;;;;;;;75.30;69.93;;;13.20;99.90;;;;;;5246764;28;20032;-69
2023/04/06 12:41:00;;;;;;;76.68;71.10;;;13.00;99.90;;;;;;5246832;28;20033;-68
2023/04/06 12:43:31;;;;;;;78.82;73.20;;;13.10;99.90;;;;;;5246549;28;20158;-69
2023/04/06 12:46:02;;;;;;;75.93;70.72;;;13.10;99.90;;;;;;5246823;28;20130;-69
2023/04/06 12:48:33;;;;;;;75.53;70.25;;;13.30;99.90;;;;;;5246726;28;20028;-69
2023/04/06 12:51:05;;;;;;;71.20;66.15;;;13.40;99.90;;;;;;5246577;28;20170;-69
2023/04/06 12:53:36;;;;;;;75.00;69.55;;;13.20;99.90;;;;;;5246793;28;20024;-69
2023/04/06 12:56:16;;;;;;;71.13;66.07;;;13.10;99.90;;;;;;5246775;28;20032;-69
2023/04/06 12:58:47;;;;;;;74.70;69.30;;;12.80;99.90;;;;;;5246722;28;20025;-69
2023/04/06 13:01:18;;;;;;;78.03;72.75;;;12.50;99.90;;;;;;5246659;28;20037;-69
2023/04/06 13:03:49;;;;;;;78.60;73.18;;;12.80;99.90;;;;;;5246170;28;20043;-68
2023/04/06 13:06:20;;;;;;;74.57;69.40;;;12.90;99.90;;;;;;5246608;28;20024;-69
2023/04/06 13:08:51;;;;;;;74.55;69.68;;;13.10;99.90;;;;;;5246523;28;20025;-68